Recent forum postings ...
Today
Change wake turbulence after filing FP
Yesterday
KLM-VA site "not responding", is my flight toast?
3 days ago
Fly KLM Mon CTL
2021-04-09
SCHEDULE FLIGHT BOEING 737
2021-04-08
Law and rules in KLM VA
2021-04-04
Flying a Tour.


 
Aircraft IdentFlightrulesType of Flight
KLM948IS
NumberType of AircraftWake turbulenceEquipmentTransponder Type
1B763HSCFGIWS
Departure AerodromeDeparture Time
LFPG830
Cruising speedFlight level
M083F280
Route
OPAL4A OPALE UT421 KUNAV Y8 BANVA BANV1L



Destination AerodromeTotal EETAlternative Aerodrome
EGSS0110EHAM
Other information
KLMVA/DOF/210408 /SIMBRIEF ROUTES/NAVIGRAPH CHARTS/AIRAC CYCLE 2103/WORLDTOUR

Explanation of the IVAO flightplan

Charles-de-Gaulle (LFPG), France

METAR
LFPG 080700Z 05002KT CAVOK 05/00 Q1025 NOSIG

WINDNE at 2 mph
VISIBILITYgreater than 7 miles
CONDITIONS
CLOUDSclear skies
TEMP41°F (5°C)
DEWPT32°F (0°C)
HUMIDITY70%
BAROMETER1025 hPa (30.27 in Hg)

RUNWAYS

RunwayDesignatorSurfaceHeadingLengthWidthAltitudeILSILS-Freq.Glidescope Pitch
08LEFTCONCRETE85.374210.2 ft45.11 ft119.48 ftCAT III ILS 08L108.73
08RIGHTCONCRETE85.482694.43 ft60.05 ft119.48 ftCAT III ILS/DME 08R108.553
09LEFTASPHALT85.332694.74 ft60.05 ft119.48 ftCAT III ILS/DME 09L109.353
09RIGHTASPHALT85.324193.13 ft45.11 ft119.48 ftCAT III ILS/DME 09R110.13

Stansted (EGSS), United Kingdom

METAR
EGSS 080820Z AUTO 22011KT 9999 BKN035 06/M01 Q1022

WINDSW at 13 mph
VISIBILITY16 miles
CONDITIONS
CLOUDSmostly cloudy
TEMP43°F (6°C)
WIND CHILL36°F (2°C)
DEWPT30°F (-1°C)
HUMIDITY61%
BAROMETER1022 hPa (30.18 in Hg)

Registration TimeGroundspeedAltitudeTransponderHeadingLongitudeLatitudeOn ground
07:33 08-04-20210 kts405 ft12001032.5728549.0065Yes
07:360 kts405 ft12001032.5728549.0065Yes
07:390 kts405 ft12001032.5728549.0065Yes
07:420 kts405 ft31061032.5728549.0065Yes
07:452 kts405 ft3106912.5723449.0065Yes
07:4818 kts405 ft3106852.5739849.0087Yes
07:5118 kts405 ft31063562.5812749.0172Yes
07:545 kts405 ft31063542.5630249.0214Yes
07:57137 kts405 ft31062652.5513349.0228Yes
08:00265 kts8337 ft31063302.336149.1012No
08:03392 kts15781 ft31063392.1917949.3629No
08:06425 kts24060 ft31063372.0112649.6834No
08:09394 kts28356 ft31063211.7897549.978No
08:12393 kts28347 ft31063191.4593950.2285No
08:15391 kts28340 ft31063191.1218850.4745No
08:18387 kts28323 ft31063180.6672650.61No
08:21388 kts28315 ft31063200.36573150.8343No
08:24313 kts28039 ft31063240.06024551.0669No
08:27323 kts23186 ft3106323-0.16819451.2739No
08:30318 kts17821 ft310619-0.30200851.4995No
08:33284 kts14441 ft310620-0.1384951.7086No
08:36239 kts10236 ft3106190.00042251.9027No
08:39240 kts6388 ft3106640.2208952.0315No
08:42180 kts3277 ft31062190.41414852.004No
08:45145 kts820 ft31062220.27560751.9122No
08:4823 kts361 ft3106430.24159151.8843Yes
08:510 kts361 ft3106440.245451.8855Yes
08:540 kts361 ft3106440.245451.8855Yes
08:570 kts361 ft3106440.245451.8855Yes